createdAt,value
2023-03-26T00:00:54.416Z,97050.63
2023-03-26T00:03:58.137Z,96949.06
2023-03-26T00:07:00.715Z,96901.91
2023-03-26T00:10:16.201Z,97142.56
2023-03-26T00:13:19.879Z,97056.53
2023-03-26T00:16:24.486Z,96713.25
2023-03-26T00:19:28.157Z,97085.47
2023-03-26T00:22:34.283Z,96945.28
2023-03-26T00:25:42.078Z,97085.22
2023-03-26T00:32:30.661Z,96689.44
2023-03-26T00:35:37.072Z,96968.63
2023-03-26T00:38:41.691Z,97042.06
2023-03-26T00:41:44.393Z,97141.47
2023-03-26T00:44:46.792Z,97126.41
2023-03-26T00:47:48.808Z,97131.38
2023-03-26T00:50:51.250Z,97116.50
2023-03-26T00:53:53.431Z,97136.00
2023-03-26T00:56:56.319Z,97123.25
2023-03-26T00:59:58.473Z,97118.88
2023-03-26T01:03:05.233Z,97107.28
2023-03-26T01:06:14.186Z,97120.91
2023-03-26T01:09:19.337Z,97130.53
2023-03-26T01:12:25.042Z,97124.63
2023-03-26T01:15:30.117Z,97114.81
2023-03-26T01:18:34.151Z,97104.38
2023-03-26T01:21:38.978Z,97092.97
2023-03-26T01:24:42.024Z,97087.03
2023-03-26T01:27:54.879Z,97084.28
2023-03-26T01:31:07.116Z,97093.56
2023-03-26T01:34:21.580Z,97091.88
2023-03-26T01:37:34.409Z,97088.16
2023-03-26T01:40:49.639Z,97092.88
2023-03-26T01:43:59.372Z,97095.63
2023-03-26T01:47:02.101Z,97089.16
2023-03-26T01:50:04.517Z,97041.88
2023-03-26T01:53:08.282Z,97088.69
2023-03-26T01:56:39.560Z,97104.72
2023-03-26T01:59:56.400Z,97079.81
2023-03-26T02:03:05.060Z,97076.44
2023-03-26T02:06:15.854Z,97079.28
2023-03-26T02:09:25.042Z,97077.09
2023-03-26T02:12:29.513Z,97070.31
2023-03-26T02:15:31.605Z,97070.84
2023-03-26T02:18:37.032Z,97072.34
2023-03-26T02:21:39.092Z,97042.25
2023-03-26T02:24:42.023Z,97043.09
2023-03-26T02:27:45.599Z,97076.72
2023-03-26T02:30:47.645Z,97068.75
2023-03-26T02:33:50.562Z,97016.50
2023-03-26T02:36:53.002Z,97061.50
2023-03-26T02:39:55.500Z,97049.00
2023-03-26T02:43:04.649Z,97066.97
2023-03-26T02:46:07.786Z,97047.94
2023-03-26T02:49:38.988Z,97062.34
2023-03-26T02:52:41.160Z,97042.19
2023-03-26T02:55:43.250Z,97022.59
2023-03-26T02:58:47.058Z,97060.75
2023-03-26T03:01:49.307Z,97055.19
2023-03-26T03:05:01.708Z,97071.22
2023-03-26T03:08:08.288Z,97077.34
2023-03-26T03:11:15.849Z,97062.22
2023-03-26T03:14:20.938Z,97057.31
2023-03-26T03:17:23.088Z,97065.34
2023-03-26T03:20:25.136Z,97063.66
2023-03-26T03:23:27.127Z,97058.56
2023-03-26T03:26:38.273Z,97064.69
2023-03-26T03:30:03.397Z,97064.19
2023-03-26T03:33:19.409Z,97069.94
2023-03-26T03:36:23.469Z,97080.41
2023-03-26T03:39:35.112Z,97048.63
2023-03-26T03:42:38.310Z,97071.94
2023-03-26T03:45:41.427Z,97029.91
2023-03-26T03:49:00.580Z,97058.19
2023-03-26T03:52:08.229Z,97065.97
2023-03-26T03:55:15.497Z,97073.03
2023-03-26T03:58:28.410Z,97018.69
2023-03-26T04:01:36.426Z,97060.13
2023-03-26T04:04:59.113Z,97058.03
2023-03-26T04:08:02.334Z,97063.28
2023-03-26T04:11:15.127Z,97078.50
2023-03-26T04:14:40.153Z,96985.16
2023-03-26T04:17:52.297Z,97060.13
2023-03-26T04:20:55.897Z,97065.28
2023-03-26T04:24:03.108Z,97068.81
2023-03-26T04:27:35.535Z,97038.03
2023-03-26T04:31:07.190Z,97051.72
2023-03-26T04:34:23.671Z,97062.53
2023-03-26T04:37:55.056Z,97067.63
2023-03-26T04:41:12.231Z,97062.81
2023-03-26T04:44:22.958Z,97065.53
2023-03-26T04:47:37.165Z,97068.97
2023-03-26T04:50:45.492Z,97062.69
2023-03-26T04:53:53.394Z,97074.06
2023-03-26T04:57:09.411Z,97045.81
2023-03-26T05:00:21.732Z,97067.53
2023-03-26T05:03:32.758Z,97074.59
2023-03-26T05:06:42.176Z,97056.19
2023-03-26T05:10:15.808Z,97066.97
2023-03-26T05:13:36.541Z,97072.28
2023-03-26T05:16:44.975Z,97076.06
2023-03-26T05:19:47.927Z,97072.38
2023-03-26T05:22:51.708Z,97049.84
2023-03-26T05:26:13.924Z,97059.97
2023-03-26T05:29:17.941Z,97058.44
2023-03-26T05:32:23.552Z,97053.78
2023-03-26T05:35:26.812Z,97062.47
2023-03-26T05:38:30.837Z,97067.13
2023-03-26T05:41:33.071Z,97046.44
2023-03-26T05:44:35.564Z,97061.59
2023-03-26T05:47:43.156Z,97057.09
2023-03-26T05:50:45.228Z,97056.28
2023-03-26T05:53:47.256Z,97014.38
2023-03-26T05:57:14.944Z,97060.50
2023-03-26T06:00:38.584Z,97074.53
2023-03-26T06:03:45.249Z,97037.63
2023-03-26T06:06:54.297Z,97089.81
2023-03-26T06:09:56.518Z,97082.97
2023-03-26T06:12:58.586Z,97085.00
2023-03-26T06:16:00.814Z,97094.75
2023-03-26T06:19:11.358Z,97103.78
2023-03-26T06:22:35.621Z,97097.44
2023-03-26T06:26:16.380Z,97092.97
2023-03-26T06:29:38.655Z,97103.97
2023-03-26T06:32:46.659Z,97100.06
2023-03-26T06:35:54.190Z,97108.06
2023-03-26T06:38:56.631Z,97116.72
2023-03-26T06:41:58.793Z,97122.06
2023-03-26T06:45:19.179Z,97113.22
2023-03-26T06:48:42.304Z,97121.28
2023-03-26T06:51:53.334Z,97124.88
2023-03-26T06:55:14.590Z,97137.25
2023-03-26T06:58:35.360Z,97118.97
2023-03-26T07:02:12.881Z,97117.31
2023-03-26T07:05:35.166Z,97106.25
2023-03-26T07:08:57.542Z,97114.78
2023-03-26T07:12:19.764Z,97079.19
2023-03-26T07:15:40.261Z,97031.28
2023-03-26T07:19:01.875Z,97096.81
2023-03-26T07:22:19.128Z,97088.88
2023-03-26T07:25:41.913Z,97062.75
2023-03-26T07:29:16.169Z,97089.47
2023-03-26T07:32:56.309Z,97096.75
2023-03-26T07:36:33.009Z,96892.16
2023-03-26T07:40:10.531Z,97064.97
2023-03-26T07:43:44.643Z,97067.63
2023-03-26T07:47:27.544Z,97075.78
2023-03-26T07:51:00.448Z,97081.25
2023-03-26T07:54:21.123Z,97073.97
2023-03-26T07:57:55.634Z,97076.88
2023-03-26T08:01:41.046Z,97069.84
2023-03-26T08:05:05.142Z,97052.91
2023-03-26T08:08:58.733Z,97055.66
2023-03-26T08:12:36.584Z,97063.97
2023-03-26T08:16:03.035Z,97074.09
2023-03-26T08:19:34.318Z,97061.03
2023-03-26T08:22:41.467Z,97066.63
2023-03-26T08:26:06.008Z,97055.97
2023-03-26T08:29:27.713Z,97036.19
2023-03-26T08:32:30.607Z,97051.69
2023-03-26T08:35:35.426Z,97047.13
2023-03-26T08:38:37.573Z,97032.38
2023-03-26T08:42:27.976Z,97036.69
2023-03-26T08:46:08.912Z,96935.28
2023-03-26T08:49:17.303Z,97019.06
2023-03-26T08:52:36.066Z,96935.00
2023-03-26T08:55:52.825Z,97048.41
2023-03-26T08:59:20.622Z,97002.69
2023-03-26T09:02:41.204Z,96990.91
2023-03-26T09:06:08.305Z,96990.59
2023-03-26T09:09:43.385Z,96547.03
2023-03-26T09:13:10.120Z,96832.28
2023-03-26T09:16:56.293Z,96976.25
2023-03-26T09:20:40.310Z,96530.28
2023-03-26T09:24:18.102Z,96701.69
2023-03-26T09:27:44.765Z,96955.88
2023-03-26T09:31:05.759Z,96948.16
2023-03-26T09:34:33.185Z,96945.66
2023-03-26T09:37:56.953Z,96886.41
2023-03-26T09:41:44.077Z,96936.69
2023-03-26T09:45:21.183Z,96870.06
2023-03-26T09:48:54.384Z,96881.50
2023-03-26T09:52:34.291Z,96913.91
2023-03-26T09:55:40.590Z,96904.00
2023-03-26T09:58:53.133Z,96817.88
2023-03-26T10:01:55.326Z,96898.22
2023-03-26T10:05:16.128Z,96893.72
2023-03-26T10:08:50.101Z,96703.03
2023-03-26T10:12:10.586Z,96838.50
2023-03-26T10:15:26.756Z,96873.16
2023-03-26T10:18:51.527Z,96659.22
2023-03-26T10:22:11.752Z,96851.47
2023-03-26T10:25:23.256Z,96812.66
2023-03-26T10:29:09.880Z,96801.88
2023-03-26T10:32:46.876Z,96822.84
2023-03-26T10:35:56.608Z,96823.69
2023-03-26T10:39:36.284Z,96817.19
2023-03-26T10:43:26.444Z,96813.31
2023-03-26T10:47:08.370Z,96793.47
2023-03-26T10:50:24.000Z,96731.44
2023-03-26T10:53:35.116Z,96711.06
2023-03-26T10:56:46.186Z,96367.50
2023-03-26T10:59:48.391Z,96683.78
2023-03-26T11:03:21.774Z,96747.03
2023-03-26T11:06:36.070Z,96741.19
2023-03-26T11:09:47.637Z,96741.00
2023-03-26T11:13:16.075Z,96753.03
2023-03-26T11:16:50.670Z,96733.97
2023-03-26T11:20:11.168Z,96724.47
2023-03-26T11:23:36.215Z,96726.00
2023-03-26T11:27:14.889Z,96718.09
2023-03-26T11:30:47.659Z,96705.59
2023-03-26T11:33:55.577Z,96708.13
2023-03-26T11:37:01.777Z,96698.28
2023-03-26T11:40:21.626Z,96698.97
2023-03-26T11:43:33.541Z,96698.09
2023-03-26T11:46:40.277Z,96692.50
2023-03-26T11:49:44.887Z,96646.97
2023-03-26T11:52:47.226Z,96683.09
2023-03-26T11:56:01.669Z,96634.09
2023-03-26T11:59:24.460Z,96636.97
2023-03-26T12:02:30.044Z,96649.31
2023-03-26T12:05:36.801Z,96639.97
2023-03-26T12:08:40.061Z,96636.97
2023-03-26T12:11:48.302Z,96642.44
2023-03-26T12:14:51.406Z,96647.91
2023-03-26T12:17:57.302Z,96640.19
2023-03-26T12:21:05.904Z,96645.63
2023-03-26T12:24:30.750Z,96627.84
2023-03-26T12:27:33.453Z,96623.56
2023-03-26T12:30:38.154Z,96596.13
2023-03-26T12:33:40.758Z,96614.53
2023-03-26T12:36:50.718Z,96607.91
2023-03-26T12:40:25.672Z,96605.41
2023-03-26T12:44:54.026Z,96602.34
2023-03-26T12:47:57.722Z,96597.25
2023-03-26T12:50:47.782Z,96584.34
2023-03-26T12:54:21.816Z,96580.06
2023-03-26T12:58:13.993Z,96565.06
2023-03-26T13:01:28.951Z,96556.19
2023-03-26T13:05:05.534Z,96551.09
2023-03-26T13:08:21.226Z,96538.47
2023-03-26T13:11:38.614Z,96521.59
2023-03-26T13:14:58.964Z,96519.72
2023-03-26T13:18:27.450Z,96534.59
2023-03-26T13:21:54.120Z,96534.00
2023-03-26T13:25:23.264Z,96502.19
2023-03-26T13:28:47.259Z,96532.13
2023-03-26T13:32:17.229Z,96532.72
2023-03-26T13:36:10.164Z,96532.13
2023-03-26T13:39:26.681Z,96511.63
2023-03-26T13:43:05.575Z,96516.41
2023-03-26T13:46:13.331Z,96512.81
2023-03-26T13:49:20.967Z,96505.97
2023-03-26T13:52:46.196Z,96498.47
2023-03-26T13:55:54.762Z,96490.34
2023-03-26T13:59:03.601Z,96472.78
2023-03-26T14:02:12.250Z,96463.94
2023-03-26T14:05:26.607Z,96449.22
2023-03-26T14:08:41.047Z,96428.19
2023-03-26T14:12:00.408Z,96409.41
2023-03-26T14:15:06.119Z,96403.25
2023-03-26T14:18:25.275Z,96417.16
2023-03-26T14:22:08.915Z,96427.38
2023-03-26T14:25:45.204Z,96427.13
2023-03-26T14:29:09.447Z,96414.44
2023-03-26T14:32:32.169Z,96411.94
2023-03-26T14:35:42.324Z,96402.09
2023-03-26T14:38:57.396Z,96399.63
2023-03-26T14:42:09.125Z,96398.84
2023-03-26T14:45:48.468Z,96394.94
2023-03-26T14:49:21.461Z,96397.34
2023-03-26T14:52:38.402Z,96397.19
2023-03-26T14:56:02.297Z,96382.88
2023-03-26T14:59:38.116Z,96386.16
2023-03-26T15:03:10.416Z,96387.28
2023-03-26T15:06:54.474Z,96391.84
2023-03-26T15:10:27.319Z,96388.66
2023-03-26T15:14:02.174Z,96387.50
2023-03-26T15:17:51.543Z,96381.56
2023-03-26T15:21:32.853Z,96387.03
2023-03-26T15:25:07.129Z,96394.56
2023-03-26T15:28:40.525Z,96389.91
2023-03-26T15:32:14.953Z,96409.25
2023-03-26T15:35:32.751Z,96413.13
2023-03-26T15:39:16.632Z,96408.22
2023-03-26T15:42:31.951Z,96417.63
2023-03-26T15:45:36.805Z,96417.81
2023-03-26T15:49:14.502Z,96414.63
2023-03-26T15:52:26.195Z,96416.19
2023-03-26T15:55:32.060Z,96423.25
2023-03-26T15:58:48.380Z,96425.06
2023-03-26T16:02:05.126Z,96424.47
2023-03-26T16:05:23.147Z,96423.28
2023-03-26T16:08:56.688Z,96422.06
2023-03-26T16:12:04.159Z,96433.34
2023-03-26T16:15:07.759Z,96419.25
2023-03-26T16:18:10.465Z,96426.75
2023-03-26T16:21:38.056Z,96421.84
2023-03-26T16:24:44.977Z,96435.03
2023-03-26T16:27:47.811Z,96435.47
2023-03-26T16:31:37.654Z,96416.69
2023-03-26T16:34:53.975Z,96423.50
2023-03-26T16:38:14.091Z,96396.00
2023-03-26T16:41:19.709Z,96402.66
2023-03-26T16:45:01.349Z,96423.72
2023-03-26T16:48:22.376Z,96417.19
2023-03-26T16:51:40.115Z,96429.50
2023-03-26T16:55:19.765Z,96425.28
2023-03-26T16:58:38.694Z,96429.66
2023-03-26T17:01:48.861Z,96432.94
2023-03-26T17:04:59.517Z,96407.19
2023-03-26T17:08:42.876Z,96439.16
2023-03-26T17:12:13.244Z,96437.34
2023-03-26T17:15:37.322Z,96429.31
2023-03-26T17:18:50.045Z,96434.16
2023-03-26T17:22:20.746Z,96430.16
2023-03-26T17:25:44.300Z,96440.59
2023-03-26T17:29:18.322Z,96439.28
2023-03-26T17:32:21.737Z,96441.63
2023-03-26T17:35:47.647Z,96438.75
2023-03-26T17:38:50.766Z,96430.75
2023-03-26T17:42:01.897Z,96435.31
2023-03-26T17:45:21.287Z,96434.28
2023-03-26T17:48:29.003Z,96445.78
2023-03-26T17:51:58.350Z,96436.16
2023-03-26T17:55:02.493Z,96435.34
2023-03-26T17:58:27.575Z,96438.84
2023-03-26T18:01:39.442Z,96441.53
2023-03-26T18:04:46.460Z,96443.69
2023-03-26T18:08:22.346Z,96440.25
2023-03-26T18:11:33.268Z,96438.91
2023-03-26T18:15:03.420Z,96446.44
2023-03-26T18:18:33.461Z,96437.38
2023-03-26T18:21:43.149Z,96446.94
2023-03-26T18:24:54.643Z,96434.94
2023-03-26T18:27:58.929Z,96432.31
2023-03-26T18:31:20.915Z,96430.44
2023-03-26T18:34:26.786Z,96425.16
2023-03-26T18:37:36.461Z,96416.38
2023-03-26T18:40:44.996Z,96418.25
2023-03-26T18:43:49.567Z,96422.00
2023-03-26T18:46:57.741Z,96413.47
2023-03-26T18:50:01.494Z,96404.19
2023-03-26T18:53:07.910Z,96398.31
2023-03-26T18:56:32.518Z,96398.06
2023-03-26T18:59:40.879Z,96394.63
2023-03-26T19:02:45.556Z,96386.38
2023-03-26T19:05:50.113Z,96373.06
2023-03-26T19:08:54.021Z,96332.97
2023-03-26T19:11:58.914Z,96367.22
2023-03-26T19:15:17.600Z,96359.00
2023-03-26T19:18:27.607Z,96348.63
2023-03-26T19:21:33.435Z,96348.38
2023-03-26T19:24:37.751Z,96342.53
2023-03-26T19:27:43.653Z,96335.91
2023-03-26T19:30:48.918Z,96343.03
2023-03-26T19:34:01.409Z,96354.22
2023-03-26T19:37:22.765Z,96354.19
2023-03-26T19:40:30.801Z,96354.44
2023-03-26T19:43:39.279Z,96333.94
2023-03-26T19:47:47.346Z,96353.09
2023-03-26T19:50:28.727Z,96338.19
2023-03-26T19:53:35.536Z,96337.94
2023-03-26T19:56:38.966Z,96338.19
2023-03-26T19:59:42.245Z,96335.59
2023-03-26T20:02:47.423Z,96326.84
2023-03-26T20:05:51.366Z,96318.31
2023-03-26T20:08:55.585Z,96317.81
2023-03-26T20:12:00.155Z,96310.63
2023-03-26T20:15:19.434Z,96255.09
2023-03-26T20:18:23.242Z,96308.50
2023-03-26T20:21:27.033Z,96297.34
2023-03-26T20:24:30.685Z,96301.88
2023-03-26T20:27:33.700Z,96290.19
2023-03-26T20:30:38.383Z,96299.75
2023-03-26T20:33:44.665Z,96296.03
2023-03-26T20:36:48.085Z,96285.94
2023-03-26T20:39:50.939Z,96277.69
2023-03-26T20:42:53.717Z,96283.81
2023-03-26T20:45:59.162Z,96266.56
2023-03-26T20:49:02.050Z,96251.41
2023-03-26T20:52:04.427Z,96272.91
2023-03-26T20:55:07.573Z,96269.16
2023-03-26T20:58:15.483Z,96270.25
2023-03-26T21:01:17.806Z,96265.19
2023-03-26T21:04:21.106Z,96257.81
2023-03-26T21:07:23.246Z,96262.03
2023-03-26T21:10:31.600Z,96259.91
2023-03-26T21:13:45.254Z,96251.66
2023-03-26T21:16:47.662Z,96247.69
2023-03-26T21:19:50.287Z,96250.59
2023-03-26T21:23:11.668Z,96251.94
2023-03-26T21:26:25.462Z,96250.59
2023-03-26T21:29:28.119Z,96236.28
2023-03-26T21:32:31.797Z,96226.94
2023-03-26T21:35:34.948Z,96231.19
2023-03-26T21:38:38.106Z,96227.44
2023-03-26T21:42:05.754Z,96226.63
2023-03-26T21:45:09.013Z,96217.13
2023-03-26T21:48:11.506Z,96211.28
2023-03-26T21:51:14.894Z,96210.25
2023-03-26T21:54:27.223Z,96159.53
2023-03-26T21:57:29.284Z,96211.59
2023-03-26T22:00:55.532Z,96211.03
2023-03-26T22:04:11.338Z,96208.06
2023-03-26T22:07:21.001Z,96218.16
2023-03-26T22:10:23.263Z,96199.03
2023-03-26T22:13:25.665Z,96210.13
2023-03-26T22:16:27.764Z,96207.19
2023-03-26T22:19:30.526Z,96202.97
2023-03-26T22:22:32.642Z,96201.06
2023-03-26T22:25:34.863Z,96204.78
2023-03-26T22:28:37.222Z,96190.94
2023-03-26T22:31:40.550Z,96185.34
2023-03-26T22:34:42.549Z,96188.53
2023-03-26T22:37:44.624Z,96172.34
2023-03-26T22:40:55.879Z,96175.81
2023-03-26T22:44:12.871Z,96180.00
2023-03-26T22:47:21.979Z,96173.91
2023-03-26T22:50:24.893Z,96170.72
2023-03-26T22:53:26.877Z,96172.31
2023-03-26T22:56:28.887Z,96158.81
2023-03-26T22:59:31.224Z,96164.63
2023-03-26T23:02:33.487Z,96154.78
2023-03-26T23:05:35.599Z,96140.53
2023-03-26T23:08:38.834Z,96124.16
2023-03-26T23:11:41.429Z,96154.88
2023-03-26T23:14:43.778Z,96151.97
2023-03-26T23:17:45.962Z,96146.38
2023-03-26T23:20:58.186Z,96155.69
2023-03-26T23:24:00.602Z,96160.50
2023-03-26T23:27:03.702Z,96159.44
2023-03-26T23:30:06.247Z,96158.63
2023-03-26T23:33:09.239Z,96160.50
2023-03-26T23:36:13.995Z,96156.78
2023-03-26T23:39:19.653Z,96154.59
2023-03-26T23:42:28.897Z,96153.34
2023-03-26T23:45:31.854Z,96143.19
2023-03-26T23:48:33.933Z,96140.31
2023-03-26T23:51:37.140Z,96140.59
2023-03-26T23:54:39.241Z,96133.44
2023-03-26T23:57:43.382Z,96125.75
